Time,TemperatureF,DewpointF,PressureIn,WindDirection,WindDirectionDegrees,WindSpeedMPH,WindSpeedGustMPH,Humidity,HourlyPrecipIn,Conditions,Clouds,dailyrainin,SoftwareType,DateUTC
2013-01-31 00:01:00,48.5,37.3,30.03,NNW,336,21.0,21.0,65,0.00,,OVC,0.00,VWS V12.08,2013-01-31 06:01:00,
2013-01-31 00:06:00,48.2,37.0,30.03,NW,322,19.0,21.0,65,0.00,,OVC,0.00,VWS V12.08,2013-01-31 06:06:00,
2013-01-31 00:11:00,48.2,37.4,30.03,NNW,330,17.0,18.0,66,0.00,,OVC,0.00,VWS V12.08,2013-01-31 06:11:00,
2013-01-31 00:16:00,48.0,36.4,30.05,NNW,344,17.0,28.0,64,0.00,,OVC,0.00,VWS V12.08,2013-01-31 06:16:00,
2013-01-31 00:21:00,47.7,36.1,30.05,West,263,7.0,27.0,64,0.00,,OVC,0.00,VWS V12.08,2013-01-31 06:21:00,
2013-01-31 00:26:00,47.4,35.8,30.05,NW,325,11.0,27.0,64,0.00,,OVC,0.00,VWS V12.08,2013-01-31 06:26:00,
2013-01-31 00:31:00,47.2,35.7,30.05,NW,326,18.0,21.0,64,0.00,,OVC,0.00,VWS V12.08,2013-01-31 06:31:00,
2013-01-31 00:36:00,47.3,36.2,30.05,WSW,251,12.0,21.0,65,0.00,,OVC,0.00,VWS V12.08,2013-01-31 06:36:00,
2013-01-31 00:41:00,46.9,35.8,30.05,NNW,339,21.0,21.0,65,0.00,,OVC,0.00,VWS V12.08,2013-01-31 06:41:00,
2013-01-31 00:46:00,46.8,35.7,30.06,NNW,340,3.0,21.0,65,0.00,,OVC,0.00,VWS V12.08,2013-01-31 06:46:00,
2013-01-31 00:51:00,47.1,37.1,30.06,NW,325,7.0,21.0,68,0.00,,OVC,0.00,VWS V12.08,2013-01-31 06:51:00,
2013-01-31 00:56:00,47.0,36.2,30.06,NNW,333,5.0,21.0,66,0.00,,OVC,0.00,VWS V12.08,2013-01-31 06:56:00,
2013-01-31 01:01:00,46.7,35.6,30.06,NW,319,18.0,25.0,65,0.00,,OVC,0.00,VWS V12.08,2013-01-31 07:01:00,
2013-01-31 01:06:00,46.7,36.0,30.06,NW,320,5.0,25.0,66,0.00,,OVC,0.00,VWS V12.08,2013-01-31 07:06:00,
2013-01-31 01:11:00,46.7,35.2,30.06,WNW,291,18.0,24.0,64,0.00,,OVC,0.00,VWS V12.08,2013-01-31 07:11:00,
2013-01-31 01:16:00,46.5,35.4,30.07,NNW,330,21.0,24.0,65,0.00,,OVC,0.00,VWS V12.08,2013-01-31 07:16:00,
2013-01-31 01:21:00,46.3,34.8,30.07,NW,315,17.0,18.0,64,0.00,,OVC,0.00,VWS V12.08,2013-01-31 07:21:00,
2013-01-31 01:26:00,46.2,34.7,30.07,NW,311,18.0,28.0,64,0.00,,OVC,0.00,VWS V12.08,2013-01-31 07:26:00,
2013-01-31 01:31:00,46.1,34.6,30.07,NW,306,8.0,21.0,64,0.00,,OVC,0.00,VWS V12.08,2013-01-31 07:31:00,
2013-01-31 01:36:00,46.0,34.5,30.07,West,272,6.0,21.0,64,0.00,,OVC,0.00,VWS V12.08,2013-01-31 07:36:00,
2013-01-31 01:41:00,46.0,34.5,30.07,NNW,337,10.0,17.0,64,0.00,,OVC,0.00,VWS V12.08,2013-01-31 07:41:00,
2013-01-31 01:46:00,46.1,34.6,30.08,NNW,337,12.0,19.0,64,0.00,,OVC,0.00,VWS V12.08,2013-01-31 07:46:00,
2013-01-31 01:51:00,45.8,34.3,30.08,NW,318,9.0,13.0,64,0.00,,OVC,0.00,VWS V12.08,2013-01-31 07:51:00,
2013-01-31 01:56:00,45.6,33.3,30.08,NNW,344,16.0,25.0,62,0.00,,OVC,0.00,VWS V12.08,2013-01-31 07:56:00,
2013-01-31 02:01:00,45.6,34.5,30.08,NNW,332,18.0,18.0,65,0.00,,OVC,0.00,VWS V12.08,2013-01-31 08:01:00,
2013-01-31 02:06:00,45.5,34.4,30.08,NW,322,8.0,18.0,65,0.00,,OVC,0.00,VWS V12.08,2013-01-31 08:06:00,
2013-01-31 02:11:00,45.4,34.0,30.08,NNW,332,8.0,13.0,64,0.00,,OVC,0.00,VWS V12.08,2013-01-31 08:11:00,
2013-01-31 02:16:00,45.4,33.6,30.09,NNW,330,13.0,27.0,63,0.00,,OVC,0.00,VWS V12.08,2013-01-31 08:16:00,
2013-01-31 02:22:00,45.3,34.2,30.09,North,0,6.0,10.0,65,0.00,,OVC,0.00,VWS V12.08,2013-01-31 08:22:00,
2013-01-31 02:27:00,45.3,35.4,30.09,NW,316,7.0,11.0,68,0.00,,OVC,0.00,VWS V12.08,2013-01-31 08:27:00,
2013-01-31 02:32:00,45.3,35.0,30.09,North,356,5.0,17.0,67,0.00,,OVC,0.00,VWS V12.08,2013-01-31 08:32:00,
2013-01-31 02:37:00,45.4,35.1,30.09,NNW,339,17.0,17.0,67,0.00,,OVC,0.00,VWS V12.08,2013-01-31 08:37:00,
2013-01-31 02:42:00,45.2,34.2,30.09,WNW,301,15.0,15.0,65,0.00,,OVC,0.00,VWS V12.08,2013-01-31 08:42:00,
2013-01-31 02:47:00,44.9,33.9,30.09,NNW,329,17.0,18.0,65,0.00,,OVC,0.00,VWS V12.08,2013-01-31 08:47:00,
2013-01-31 02:52:00,44.8,33.4,30.09,NW,305,16.0,18.0,64,0.00,,OVC,0.00,VWS V12.08,2013-01-31 08:52:00,
2013-01-31 02:57:00,44.7,33.7,30.09,NNW,339,11.0,18.0,65,0.00,,OVC,0.00,VWS V12.08,2013-01-31 08:57:00,
2013-01-31 03:02:00,44.5,33.5,30.09,North,0,13.0,24.0,65,0.00,,OVC,0.00,VWS V12.08,2013-01-31 09:02:00,
2013-01-31 03:07:00,44.6,33.2,30.09,NNW,336,16.0,24.0,64,0.00,,OVC,0.00,VWS V12.08,2013-01-31 09:07:00,
2013-01-31 03:12:00,44.7,34.4,30.09,WNW,301,11.0,16.0,67,0.00,,OVC,0.00,VWS V12.08,2013-01-31 09:12:00,
2013-01-31 03:17:00,44.8,34.5,30.10,NW,320,11.0,21.0,67,0.00,,OVC,0.00,VWS V12.08,2013-01-31 09:17:00,
2013-01-31 03:22:00,44.5,33.9,30.10,NW,322,14.0,28.0,66,0.00,,OVC,0.00,VWS V12.08,2013-01-31 09:22:00,
2013-01-31 03:27:00,44.3,32.9,30.10,NW,308,8.0,30.0,64,0.00,,OVC,0.00,VWS V12.08,2013-01-31 09:27:00,
2013-01-31 03:32:00,44.2,33.2,30.10,NNW,332,17.0,18.0,65,0.00,,OVC,0.00,VWS V12.08,2013-01-31 09:32:00,
2013-01-31 03:37:00,44.1,33.1,30.10,North,1,8.0,25.0,65,0.00,,OVC,0.00,VWS V12.08,2013-01-31 09:37:00,
2013-01-31 03:42:00,44.1,33.1,30.10,NNW,342,13.0,18.0,65,0.00,,OVC,0.00,VWS V12.08,2013-01-31 09:42:00,
2013-01-31 03:47:00,44.0,32.6,30.12,NNW,332,20.0,30.0,64,0.00,,OVC,0.00,VWS V12.08,2013-01-31 09:47:00,
2013-01-31 03:52:00,44.0,33.0,30.12,NNW,339,26.0,26.0,65,0.00,,OVC,0.00,VWS V12.08,2013-01-31 09:52:00,
2013-01-31 03:57:00,43.8,32.8,30.12,North,0,14.0,26.0,65,0.00,,OVC,0.00,VWS V12.08,2013-01-31 09:57:00,
2013-01-31 04:02:00,43.9,32.9,30.10,West,260,13.0,19.0,65,0.00,,OVC,0.00,VWS V12.08,2013-01-31 10:02:00,
2013-01-31 04:07:00,43.5,32.2,30.10,WNW,299,5.0,21.0,64,0.00,,OVC,0.00,VWS V12.08,2013-01-31 10:07:00,
2013-01-31 04:12:00,43.5,32.2,30.10,NNW,333,11.0,17.0,64,0.00,,OVC,0.00,VWS V12.08,2013-01-31 10:12:00,
2013-01-31 04:17:00,43.3,32.3,30.11,NW,318,14.0,19.0,65,0.00,,OVC,0.00,VWS V12.08,2013-01-31 10:17:00,
2013-01-31 04:22:00,43.3,32.7,30.11,WNW,284,8.0,21.0,66,0.00,,OVC,0.00,VWS V12.08,2013-01-31 10:22:00,
2013-01-31 04:27:00,43.3,32.0,30.11,North,0,9.0,21.0,64,0.00,,OVC,0.00,VWS V12.08,2013-01-31 10:27:00,
2013-01-31 04:32:00,43.3,32.0,30.10,North,0,12.0,12.0,64,0.00,,OVC,0.00,VWS V12.08,2013-01-31 10:32:00,
2013-01-31 04:37:00,42.8,31.5,30.10,NW,325,11.0,14.0,64,0.00,,OVC,0.00,VWS V12.08,2013-01-31 10:37:00,
2013-01-31 04:42:00,43.0,31.7,30.10,WNW,288,10.0,13.0,64,0.00,,OVC,0.00,VWS V12.08,2013-01-31 10:42:00,
2013-01-31 04:47:00,43.1,33.3,30.11,NNW,328,7.0,18.0,68,0.00,,OVC,0.00,VWS V12.08,2013-01-31 10:47:00,
2013-01-31 04:52:00,43.0,32.8,30.11,NW,323,12.0,13.0,67,0.00,,OVC,0.00,VWS V12.08,2013-01-31 10:52:00,
2013-01-31 04:57:00,43.0,32.8,30.11,North,349,21.0,21.0,67,0.00,,OVC,0.00,VWS V12.08,2013-01-31 10:57:00,
2013-01-31 05:02:00,42.8,32.2,30.11,NW,323,14.0,14.0,66,0.00,,OVC,0.00,VWS V12.08,2013-01-31 11:02:00,
2013-01-31 05:07:00,43.0,33.2,30.11,NW,319,12.0,16.0,68,0.00,,OVC,0.00,VWS V12.08,2013-01-31 11:07:00,
2013-01-31 05:12:00,42.8,32.2,30.11,NW,319,11.0,19.0,66,0.00,,OVC,0.00,VWS V12.08,2013-01-31 11:12:00,
2013-01-31 05:17:00,42.9,32.0,30.11,NW,313,12.0,20.0,65,0.00,,OVC,0.00,VWS V12.08,2013-01-31 11:17:00,
2013-01-31 05:22:00,42.7,31.8,30.11,NW,309,17.0,17.0,65,0.00,,OVC,0.00,VWS V12.08,2013-01-31 11:22:00,
2013-01-31 05:27:00,42.8,32.2,30.11,NNW,332,7.0,17.0,66,0.00,,OVC,0.00,VWS V12.08,2013-01-31 11:27:00,
2013-01-31 05:32:00,42.7,31.8,30.12,North,1,6.0,18.0,65,0.00,,OVC,0.00,VWS V12.08,2013-01-31 11:32:00,
2013-01-31 05:37:00,42.7,32.2,30.12,North,0,10.0,18.0,66,0.00,,OVC,0.00,VWS V12.08,2013-01-31 11:37:00,
2013-01-31 05:42:00,42.8,31.9,30.12,North,0,6.0,12.0,65,0.00,,OVC,0.00,VWS V12.08,2013-01-31 11:42:00,
2013-01-31 05:47:00,42.6,31.7,30.13,NNW,333,16.0,19.0,65,0.00,,OVC,0.00,VWS V12.08,2013-01-31 11:47:00,
2013-01-31 05:52:00,42.5,32.0,30.13,North,350,7.0,13.0,66,0.00,,OVC,0.00,VWS V12.08,2013-01-31 11:52:00,
2013-01-31 05:57:00,42.6,32.0,30.13,North,0,13.0,13.0,66,0.00,,OVC,0.00,VWS V12.08,2013-01-31 11:57:00,
2013-01-31 06:02:00,42.6,32.0,30.14,NNW,339,1.0,12.0,66,0.00,,OVC,0.00,VWS V12.08,2013-01-31 12:02:00,
2013-01-31 06:07:00,42.8,32.2,30.14,NW,320,8.0,12.0,66,0.00,,OVC,0.00,VWS V12.08,2013-01-31 12:07:00,
2013-01-31 06:12:00,42.7,32.2,30.14,NW,308,12.0,19.0,66,0.00,,OVC,0.00,VWS V12.08,2013-01-31 12:12:00,
2013-01-31 06:17:00,42.7,32.2,30.14,NW,313,3.0,19.0,66,0.00,,OVC,0.00,VWS V12.08,2013-01-31 12:17:00,
2013-01-31 06:22:00,42.7,32.5,30.14,North,352,6.0,12.0,67,0.00,,OVC,0.00,VWS V12.08,2013-01-31 12:22:00,
2013-01-31 06:27:00,42.7,32.5,30.14,WSW,246,7.0,14.0,67,0.00,,OVC,0.00,VWS V12.08,2013-01-31 12:27:00,
2013-01-31 06:32:00,42.7,32.5,30.15,NW,309,9.0,10.0,67,0.00,,OVC,0.00,VWS V12.08,2013-01-31 12:32:00,
2013-01-31 06:37:00,42.6,32.8,30.15,West,260,5.0,12.0,68,0.00,,OVC,0.00,VWS V12.08,2013-01-31 12:37:00,
2013-01-31 06:42:00,42.5,32.3,30.15,NNW,343,13.0,13.0,67,0.00,,OVC,0.00,VWS V12.08,2013-01-31 12:42:00,
2013-01-31 06:47:00,42.4,32.2,30.15,NW,323,10.0,18.0,67,0.00,,OVC,0.00,VWS V12.08,2013-01-31 12:47:00,
2013-01-31 06:52:00,42.4,31.9,30.15,North,359,6.0,15.0,66,0.00,,OVC,0.00,VWS V12.08,2013-01-31 12:52:00,
2013-01-31 06:57:00,42.4,32.2,30.15,WNW,284,8.0,15.0,67,0.00,,OVC,0.00,VWS V12.08,2013-01-31 12:57:00,
2013-01-31 07:02:00,42.6,32.4,30.16,NW,320,14.0,14.0,67,0.00,,OVC,0.00,VWS V12.08,2013-01-31 13:02:00,
2013-01-31 07:07:00,42.7,32.2,30.16,NW,326,4.0,14.0,66,0.00,,OVC,0.00,VWS V12.08,2013-01-31 13:07:00,
2013-01-31 07:12:00,42.7,32.9,30.16,West,274,8.0,11.0,68,0.00,,OVC,0.00,VWS V12.08,2013-01-31 13:12:00,
2013-01-31 07:17:00,42.7,32.9,30.17,WNW,291,5.0,12.0,68,0.00,,OVC,0.00,VWS V12.08,2013-01-31 13:17:00,
2013-01-31 07:22:00,42.8,32.6,30.17,North,0,5.0,13.0,67,0.00,,OVC,0.00,VWS V12.08,2013-01-31 13:22:00,
2013-01-31 07:27:00,43.1,33.3,30.17,NNW,339,8.0,13.0,68,0.00,,OVC,0.00,VWS V12.08,2013-01-31 13:27:00,
2013-01-31 07:32:00,43.0,32.8,30.17,NW,323,13.0,13.0,67,0.00,,OVC,0.00,VWS V12.08,2013-01-31 13:32:00,
2013-01-31 07:37:00,43.1,32.9,30.17,NW,308,11.0,13.0,67,0.00,,OVC,0.00,VWS V12.08,2013-01-31 13:37:00,
2013-01-31 07:42:00,43.1,32.9,30.17,West,274,4.0,8.0,67,0.00,,OVC,0.00,VWS V12.08,2013-01-31 13:42:00,
2013-01-31 07:47:00,43.2,32.6,30.18,NNW,330,7.0,8.0,66,0.00,,OVC,0.00,VWS V12.08,2013-01-31 13:47:00,
2013-01-31 07:52:00,43.3,33.1,30.18,NW,313,12.0,12.0,67,0.00,,OVC,0.00,VWS V12.08,2013-01-31 13:52:00,
2013-01-31 07:57:00,43.5,32.5,30.18,NW,312,7.0,14.0,65,0.00,,OVC,0.00,VWS V12.08,2013-01-31 13:57:00,
2013-01-31 08:02:00,43.3,32.3,30.19,NW,313,6.0,11.0,65,0.00,,OVC,0.00,VWS V12.08,2013-01-31 14:02:00,
2013-01-31 08:07:00,43.2,33.0,30.19,NNW,342,17.0,17.0,67,0.00,,OVC,0.00,VWS V12.08,2013-01-31 14:07:00,
2013-01-31 08:12:00,43.3,33.1,30.19,NNW,328,5.0,13.0,67,0.00,,OVC,0.00,VWS V12.08,2013-01-31 14:12:00,
2013-01-31 08:17:00,43.4,32.8,30.20,WNW,282,6.0,13.0,66,0.00,,OVC,0.00,VWS V12.08,2013-01-31 14:17:00,
2013-01-31 08:22:00,43.6,33.0,30.20,NW,312,6.0,11.0,66,0.00,,OVC,0.00,VWS V12.08,2013-01-31 14:22:00,
2013-01-31 08:27:00,43.5,32.9,30.20,NW,319,2.0,12.0,66,0.00,,OVC,0.00,VWS V12.08,2013-01-31 14:27:00,
2013-01-31 08:32:00,43.7,33.5,30.21,NNW,333,12.0,12.0,67,0.00,,OVC,0.00,VWS V12.08,2013-01-31 14:32:00,
2013-01-31 08:37:00,43.9,32.9,30.21,NNW,336,5.0,13.0,65,0.00,,OVC,0.00,VWS V12.08,2013-01-31 14:37:00,
2013-01-31 08:42:00,43.9,33.3,30.21,North,0,5.0,8.0,66,0.00,,OVC,0.00,VWS V12.08,2013-01-31 14:42:00,
2013-01-31 08:47:00,44.0,33.0,30.21,NW,326,6.0,11.0,65,0.00,,OVC,0.00,VWS V12.08,2013-01-31 14:47:00,
2013-01-31 08:52:00,44.2,33.2,30.21,North,0,5.0,10.0,65,0.00,,OVC,0.00,VWS V12.08,2013-01-31 14:52:00,
2013-01-31 08:57:00,44.2,32.0,30.21,NNW,339,9.0,12.0,62,0.00,,OVC,0.00,VWS V12.08,2013-01-31 14:57:00,
2013-01-31 09:02:00,44.5,31.9,30.21,North,354,6.0,14.0,61,0.00,,OVC,0.00,VWS V12.08,2013-01-31 15:02:00,
2013-01-31 09:07:00,44.7,32.1,30.21,NNW,343,10.0,14.0,61,0.00,,OVC,0.00,VWS V12.08,2013-01-31 15:07:00,
2013-01-31 09:12:00,44.8,32.2,30.21,NNW,347,5.0,13.0,61,0.00,,OVC,0.00,VWS V12.08,2013-01-31 15:12:00,
2013-01-31 09:17:00,44.8,32.6,30.22,North,0,12.0,17.0,62,0.00,,OVC,0.00,VWS V12.08,2013-01-31 15:17:00,
2013-01-31 09:22:00,45.1,32.9,30.22,North,353,6.0,12.0,62,0.00,,OVC,0.00,VWS V12.08,2013-01-31 15:22:00,
2013-01-31 09:27:00,45.1,32.9,30.22,NW,313,6.0,12.0,62,0.00,,OVC,0.00,VWS V12.08,2013-01-31 15:27:00,
2013-01-31 09:32:00,45.1,32.5,30.22,North,359,6.0,10.0,61,0.00,,OVC,0.00,VWS V12.08,2013-01-31 15:32:00,
2013-01-31 09:37:00,45.1,31.6,30.22,North,354,5.0,10.0,59,0.00,,OVC,0.00,VWS V12.08,2013-01-31 15:37:00,
2013-01-31 09:42:00,45.9,32.4,30.22,WNW,299,9.0,11.0,59,0.00,,OVC,0.00,VWS V12.08,2013-01-31 15:42:00,
2013-01-31 09:47:00,46.0,32.1,30.22,North,0,6.0,13.0,58,0.00,,OVC,0.00,VWS V12.08,2013-01-31 15:47:00,
2013-01-31 09:52:00,46.1,32.2,30.22,NNW,328,6.0,6.0,58,0.00,,OVC,0.00,VWS V12.08,2013-01-31 15:52:00,
2013-01-31 09:57:00,46.7,31.4,30.22,NW,313,5.0,13.0,55,0.00,,OVC,0.00,VWS V12.08,2013-01-31 15:57:00,
2013-01-31 10:02:00,46.8,31.0,30.23,North,0,6.0,13.0,54,0.00,,OVC,0.00,VWS V12.08,2013-01-31 16:02:00,
2013-01-31 10:07:00,47.0,31.2,30.23,NNW,332,5.0,13.0,54,0.00,,OVC,0.00,VWS V12.08,2013-01-31 16:07:00,
2013-01-31 10:12:00,47.5,31.2,30.23,NNW,339,9.0,12.0,53,0.00,,OVC,0.00,VWS V12.08,2013-01-31 16:12:00,
2013-01-31 10:17:00,47.5,30.8,30.22,North,0,7.0,12.0,52,0.00,,OVC,0.00,VWS V12.08,2013-01-31 16:17:00,
2013-01-31 10:22:00,47.8,31.0,30.22,WNW,292,4.0,11.0,52,0.00,,OVC,0.00,VWS V12.08,2013-01-31 16:22:00,
2013-01-31 10:27:00,47.8,31.0,30.22,NW,325,5.0,13.0,52,0.00,,OVC,0.00,VWS V12.08,2013-01-31 16:27:00,
2013-01-31 10:32:00,47.9,32.1,30.23,North,356,7.0,13.0,54,0.00,,OVC,0.00,VWS V12.08,2013-01-31 16:32:00,
2013-01-31 10:37:00,48.1,32.3,30.23,WNW,282,10.0,13.0,54,0.00,,OVC,0.00,VWS V12.08,2013-01-31 16:37:00,
2013-01-31 10:42:00,48.3,32.4,30.23,West,275,6.0,12.0,54,0.00,,OVC,0.00,VWS V12.08,2013-01-31 16:42:00,
2013-01-31 10:47:00,48.5,31.7,30.23,WNW,284,8.0,12.0,52,0.00,,OVC,0.00,VWS V12.08,2013-01-31 16:47:00,
2013-01-31 10:52:00,48.9,30.1,30.23,NNW,342,6.0,18.0,48,0.00,,OVC,0.00,VWS V12.08,2013-01-31 16:52:00,
2013-01-31 10:57:00,49.3,31.0,30.23,NNW,342,7.0,18.0,49,0.00,,OVC,0.00,VWS V12.08,2013-01-31 16:57:00,
2013-01-31 11:02:00,49.5,31.1,30.23,NW,315,7.0,12.0,49,0.00,,OVC,0.00,VWS V12.08,2013-01-31 17:02:00,
2013-01-31 11:07:00,50.2,30.8,30.23,North,354,6.0,12.0,47,0.00,,OVC,0.00,VWS V12.08,2013-01-31 17:07:00,
2013-01-31 11:12:00,50.6,32.2,30.23,NW,318,18.0,19.0,49,0.00,,OVC,0.00,VWS V12.08,2013-01-31 17:12:00,
2013-01-31 11:17:00,50.8,30.2,30.23,North,353,6.0,19.0,45,0.00,,OVC,0.00,VWS V12.08,2013-01-31 17:17:00,
2013-01-31 11:22:00,51.0,29.9,30.23,West,278,10.0,13.0,44,0.00,,OVC,0.00,VWS V12.08,2013-01-31 17:22:00,
2013-01-31 11:27:00,51.1,29.4,30.23,NNW,329,10.0,13.0,43,0.00,,OVC,0.00,VWS V12.08,2013-01-31 17:27:00,
2013-01-31 11:32:00,51.1,29.4,30.23,NNW,340,11.0,16.0,43,0.00,,OVC,0.00,VWS V12.08,2013-01-31 17:32:00,
2013-01-31 11:37:00,51.6,29.3,30.23,North,357,7.0,17.0,42,0.00,,OVC,0.00,VWS V12.08,2013-01-31 17:37:00,
2013-01-31 11:42:00,51.8,29.5,30.23,NNW,330,11.0,11.0,42,0.00,,OVC,0.00,VWS V12.08,2013-01-31 17:42:00,
2013-01-31 11:47:00,51.8,28.3,30.22,WNW,294,8.0,12.0,40,0.00,,OVC,0.00,VWS V12.08,2013-01-31 17:47:00,
2013-01-31 11:52:00,51.8,29.5,30.22,North,4,7.0,11.0,42,0.00,,OVC,0.00,VWS V12.08,2013-01-31 17:52:00,
2013-01-31 11:57:00,51.8,30.0,30.22,NNW,337,6.0,11.0,43,0.00,,OVC,0.00,VWS V12.08,2013-01-31 17:57:00,
2013-01-31 12:02:00,51.8,29.5,30.21,NNW,328,10.0,10.0,42,0.00,,OVC,0.00,VWS V12.08,2013-01-31 18:02:00,
2013-01-31 12:07:00,52.8,29.8,30.21,NNW,328,8.0,12.0,41,0.00,,OVC,0.00,VWS V12.08,2013-01-31 18:07:00,
2013-01-31 12:12:00,52.6,29.6,30.21,West,278,4.0,10.0,41,0.00,,OVC,0.00,VWS V12.08,2013-01-31 18:12:00,
2013-01-31 12:17:00,52.9,28.6,30.21,NW,326,5.0,10.0,39,0.00,,OVC,0.00,VWS V12.08,2013-01-31 18:17:00,
2013-01-31 12:22:00,52.9,29.2,30.21,NW,313,8.0,13.0,40,0.00,,OVC,0.00,VWS V12.08,2013-01-31 18:22:00,
2013-01-31 12:27:00,52.8,28.5,30.21,North,0,5.0,13.0,39,0.00,,OVC,0.00,VWS V12.08,2013-01-31 18:27:00,
2013-01-31 12:32:00,53.5,29.2,30.20,NNW,347,13.0,14.0,39,0.00,,OVC,0.00,VWS V12.08,2013-01-31 18:32:00,
2013-01-31 12:37:00,53.6,29.9,30.20,North,0,12.0,14.0,40,0.00,,OVC,0.00,VWS V12.08,2013-01-31 18:37:00,
2013-01-31 12:42:00,54.0,30.2,30.20,North,350,10.0,13.0,40,0.00,,OVC,0.00,VWS V12.08,2013-01-31 18:42:00,
2013-01-31 12:47:00,54.0,28.3,30.19,NW,326,19.0,19.0,37,0.00,,OVC,0.00,VWS V12.08,2013-01-31 18:47:00,
2013-01-31 12:52:00,54.2,29.2,30.19,NNW,346,7.0,14.0,38,0.00,,OVC,0.00,VWS V12.08,2013-01-31 18:52:00,
2013-01-31 12:57:00,54.0,27.7,30.19,NNW,340,5.0,14.0,36,0.00,,OVC,0.00,VWS V12.08,2013-01-31 18:57:00,
2013-01-31 13:02:00,54.0,29.0,30.18,NW,318,7.0,17.0,38,0.00,,OVC,0.00,VWS V12.08,2013-01-31 19:02:00,
2013-01-31 13:07:00,54.3,28.6,30.18,NW,313,12.0,17.0,37,0.00,,OVC,0.00,VWS V12.08,2013-01-31 19:07:00,
2013-01-31 13:12:00,54.6,28.9,30.18,North,0,3.0,10.0,37,0.00,,OVC,0.00,VWS V12.08,2013-01-31 19:12:00,
2013-01-31 13:17:00,54.7,27.6,30.18,NNW,328,8.0,12.0,35,0.00,,OVC,0.00,VWS V12.08,2013-01-31 19:17:00,
2013-01-31 13:22:00,54.6,30.8,30.18,NNW,337,11.0,11.0,40,0.00,,OVC,0.00,VWS V12.08,2013-01-31 19:22:00,
2013-01-31 13:27:00,54.6,28.2,30.18,NNW,332,11.0,12.0,36,0.00,,OVC,0.00,VWS V12.08,2013-01-31 19:27:00,
2013-01-31 13:33:00,54.7,29.0,30.17,North,0,1.0,10.0,37,0.00,,OVC,0.00,VWS V12.08,2013-01-31 19:33:00,
2013-01-31 13:38:00,55.0,28.6,30.17,NNW,343,3.0,11.0,36,0.00,,OVC,0.00,VWS V12.08,2013-01-31 19:38:00,
2013-01-31 13:43:00,55.0,29.2,30.17,NNW,332,3.0,12.0,37,0.00,,OVC,0.00,VWS V12.08,2013-01-31 19:43:00,
2013-01-31 13:48:00,55.2,31.3,30.17,NNW,337,7.0,12.0,40,0.00,,OVC,0.00,VWS V12.08,2013-01-31 19:48:00,
2013-01-31 13:53:00,55.7,31.8,30.17,NNW,329,9.0,14.0,40,0.00,,OVC,0.00,VWS V12.08,2013-01-31 19:53:00,
2013-01-31 13:58:00,55.6,29.8,30.17,North,0,3.0,14.0,37,0.00,,OVC,0.00,VWS V12.08,2013-01-31 19:58:00,
2013-01-31 14:03:00,55.7,30.5,30.16,NNW,333,8.0,11.0,38,0.00,,OVC,0.00,VWS V12.08,2013-01-31 20:03:00,
2013-01-31 14:08:00,55.6,29.8,30.16,NNE,18,5.0,11.0,37,0.00,,OVC,0.00,VWS V12.08,2013-01-31 20:08:00,
2013-01-31 14:13:00,55.7,31.1,30.16,NE,42,5.0,10.0,39,0.00,,OVC,0.00,VWS V12.08,2013-01-31 20:13:00,
2013-01-31 14:18:00,55.7,30.5,30.16,NNW,329,3.0,10.0,38,0.00,,OVC,0.00,VWS V12.08,2013-01-31 20:18:00,
2013-01-31 14:23:00,56.0,32.0,30.16,NE,40,2.0,6.0,40,0.00,,OVC,0.00,VWS V12.08,2013-01-31 20:23:00,
2013-01-31 14:28:00,56.1,31.5,30.16,North,6,2.0,10.0,39,0.00,,OVC,0.00,VWS V12.08,2013-01-31 20:28:00,
2013-01-31 14:33:00,55.9,32.0,30.17,North,7,8.0,12.0,40,0.00,,OVC,0.00,VWS V12.08,2013-01-31 20:33:00,
2013-01-31 14:38:00,55.7,29.2,30.17,North,0,3.0,12.0,36,0.00,,OVC,0.00,VWS V12.08,2013-01-31 20:38:00,
2013-01-31 14:43:00,55.7,31.8,30.17,NNE,17,6.0,7.0,40,0.00,,OVC,0.00,VWS V12.08,2013-01-31 20:43:00,
2013-01-31 14:48:00,55.9,30.0,30.16,North,356,6.0,7.0,37,0.00,,OVC,0.00,VWS V12.08,2013-01-31 20:48:00,
2013-01-31 14:53:00,56.0,30.8,30.16,NNE,31,1.0,10.0,38,0.00,,OVC,0.00,VWS V12.08,2013-01-31 20:53:00,
2013-01-31 14:58:00,56.1,29.5,30.16,NE,56,2.0,10.0,36,0.00,,OVC,0.00,VWS V12.08,2013-01-31 20:58:00,
2013-01-31 15:03:00,56.2,30.3,30.17,NE,47,5.0,5.0,37,0.00,,OVC,0.00,VWS V12.08,2013-01-31 21:03:00,
2013-01-31 15:08:00,56.2,29.6,30.17,North,0,4.0,10.0,36,0.00,,OVC,0.00,VWS V12.08,2013-01-31 21:08:00,
2013-01-31 15:13:00,56.5,31.9,30.17,NNE,32,3.0,10.0,39,0.00,,OVC,0.00,VWS V12.08,2013-01-31 21:13:00,
2013-01-31 15:18:00,56.3,29.7,30.17,NE,38,6.0,12.0,36,0.00,,OVC,0.00,VWS V12.08,2013-01-31 21:18:00,
2013-01-31 15:23:00,56.3,28.3,30.17,NNE,32,2.0,7.0,34,0.00,,OVC,0.00,VWS V12.08,2013-01-31 21:23:00,
2013-01-31 15:28:00,56.3,29.7,30.17,ENE,72,1.0,7.0,36,0.00,,OVC,0.00,VWS V12.08,2013-01-31 21:28:00,
2013-01-31 15:33:00,56.5,31.2,30.17,NNE,30,2.0,7.0,38,0.00,,OVC,0.00,VWS V12.08,2013-01-31 21:33:00,
2013-01-31 15:38:00,56.3,31.0,30.17,ENE,64,3.0,8.0,38,0.00,,OVC,0.00,VWS V12.08,2013-01-31 21:38:00,
2013-01-31 15:43:00,56.2,30.3,30.17,North,7,3.0,5.0,37,0.00,,OVC,0.00,VWS V12.08,2013-01-31 21:43:00,
2013-01-31 15:48:00,56.5,31.2,30.17,NNE,24,5.0,5.0,38,0.00,,OVC,0.00,VWS V12.08,2013-01-31 21:48:00,
2013-01-31 15:53:00,56.5,31.2,30.17,NNW,342,6.0,6.0,38,0.00,,OVC,0.00,VWS V12.08,2013-01-31 21:53:00,
2013-01-31 15:58:00,56.5,30.6,30.17,North,6,8.0,8.0,37,0.00,,OVC,0.00,VWS V12.08,2013-01-31 21:58:00,
2013-01-31 16:03:00,56.5,30.6,30.17,NE,38,2.0,8.0,37,0.00,,OVC,0.00,VWS V12.08,2013-01-31 22:03:00,
2013-01-31 16:08:00,56.3,29.7,30.17,North,0,3.0,8.0,36,0.00,,OVC,0.00,VWS V12.08,2013-01-31 22:08:00,
2013-01-31 16:13:00,56.2,31.0,30.17,North,0,2.0,3.0,38,0.00,,OVC,0.00,VWS V12.08,2013-01-31 22:13:00,
2013-01-31 16:18:00,56.2,31.0,30.17,NNW,329,6.0,6.0,38,0.00,,OVC,0.00,VWS V12.08,2013-01-31 22:18:00,
2013-01-31 16:23:00,56.4,29.8,30.17,North,352,3.0,4.0,36,0.00,,OVC,0.00,VWS V12.08,2013-01-31 22:23:00,
2013-01-31 16:28:00,56.1,29.5,30.17,North,353,1.0,7.0,36,0.00,,OVC,0.00,VWS V12.08,2013-01-31 22:28:00,
2013-01-31 16:33:00,56.1,29.5,30.18,North,0,5.0,5.0,36,0.00,,OVC,0.00,VWS V12.08,2013-01-31 22:33:00,
2013-01-31 16:38:00,56.1,28.8,30.18,North,353,1.0,5.0,35,0.00,,OVC,0.00,VWS V12.08,2013-01-31 22:38:00,
2013-01-31 16:43:00,55.9,29.4,30.18,North,353,1.0,3.0,36,0.00,,OVC,0.00,VWS V12.08,2013-01-31 22:43:00,
2013-01-31 16:48:00,55.9,28.7,30.18,North,353,0.0,3.0,35,0.00,,OVC,0.00,VWS V12.08,2013-01-31 22:48:00,
2013-01-31 16:53:00,55.7,29.9,30.18,North,0,6.0,6.0,37,0.00,,OVC,0.00,VWS V12.08,2013-01-31 22:53:00,
2013-01-31 16:58:00,55.5,29.7,30.18,North,353,1.0,6.0,37,0.00,,OVC,0.00,VWS V12.08,2013-01-31 22:58:00,
2013-01-31 17:03:00,55.3,30.1,30.18,North,356,2.0,2.0,38,0.00,,OVC,0.00,VWS V12.08,2013-01-31 23:03:00,
2013-01-31 17:08:00,55.2,30.1,30.18,North,356,3.0,5.0,38,0.00,,OVC,0.00,VWS V12.08,2013-01-31 23:08:00,
2013-01-31 17:13:00,55.2,30.7,30.18,NNW,347,5.0,6.0,39,0.00,,OVC,0.00,VWS V12.08,2013-01-31 23:13:00,
2013-01-31 17:18:00,54.9,30.4,30.19,North,349,2.0,6.0,39,0.00,,OVC,0.00,VWS V12.08,2013-01-31 23:18:00,
2013-01-31 17:23:00,55.0,30.5,30.19,North,349,0.0,1.0,39,0.00,,OVC,0.00,VWS V12.08,2013-01-31 23:23:00,
2013-01-31 17:28:00,55.0,31.1,30.19,North,349,1.0,1.0,40,0.00,,OVC,0.00,VWS V12.08,2013-01-31 23:28:00,
2013-01-31 17:33:00,55.0,31.8,30.19,North,349,0.0,0.0,41,0.00,,OVC,0.00,VWS V12.08,2013-01-31 23:33:00,
2013-01-31 17:38:00,55.0,31.8,30.19,North,349,3.0,3.0,41,0.00,,OVC,0.00,VWS V12.08,2013-01-31 23:38:00,
2013-01-31 17:43:00,53.9,29.5,30.19,NNW,347,2.0,2.0,39,0.00,,OVC,0.00,VWS V12.08,2013-01-31 23:43:00,
2013-01-31 17:48:00,53.7,30.0,30.19,NNW,337,1.0,6.0,40,0.00,,OVC,0.00,VWS V12.08,2013-01-31 23:48:00,
2013-01-31 17:53:00,53.5,30.4,30.19,NNW,337,2.0,2.0,41,0.00,,OVC,0.00,VWS V12.08,2013-01-31 23:53:00,
2013-01-31 17:58:00,53.5,31.0,30.19,NNW,335,2.0,5.0,42,0.00,,OVC,0.00,VWS V12.08,2013-01-31 23:58:00,
2013-01-31 18:03:00,53.9,30.1,30.20,North,352,2.0,6.0,40,0.00,,OVC,0.00,VWS V12.08,2013-02-01 00:03:00,
2013-01-31 18:08:00,54.1,30.9,30.20,North,352,2.0,6.0,41,0.00,,OVC,0.00,VWS V12.08,2013-02-01 00:08:00,
2013-01-31 18:13:00,54.1,30.3,30.20,NNW,336,1.0,8.0,40,0.00,,OVC,0.00,VWS V12.08,2013-02-01 00:13:00,
2013-01-31 18:18:00,54.3,29.9,30.21,NNW,342,2.0,8.0,39,0.00,,OVC,0.00,VWS V12.08,2013-02-01 00:18:00,
2013-01-31 18:23:00,54.6,30.2,30.21,NNW,342,6.0,7.0,39,0.00,,OVC,0.00,VWS V12.08,2013-02-01 00:23:00,
2013-01-31 18:28:00,54.6,28.9,30.21,NNW,340,3.0,7.0,37,0.00,,OVC,0.00,VWS V12.08,2013-02-01 00:28:00,
2013-01-31 18:33:00,54.3,29.9,30.21,NNW,340,3.0,3.0,39,0.00,,OVC,0.00,VWS V12.08,2013-02-01 00:33:00,
2013-01-31 18:38:00,54.3,29.9,30.21,NNW,330,1.0,6.0,39,0.00,,OVC,0.00,VWS V12.08,2013-02-01 00:38:00,
2013-01-31 18:43:00,54.3,30.5,30.21,NNW,330,1.0,2.0,40,0.00,,OVC,0.00,VWS V12.08,2013-02-01 00:43:00,
2013-01-31 18:48:00,53.9,31.4,30.21,NNW,330,0.0,2.0,42,0.00,,OVC,0.00,VWS V12.08,2013-02-01 00:48:00,
2013-01-31 18:53:00,53.3,31.4,30.21,NNW,330,1.0,1.0,43,0.00,,OVC,0.00,VWS V12.08,2013-02-01 00:53:00,
2013-01-31 18:58:00,52.9,31.0,30.21,NNW,330,1.0,2.0,43,0.00,,OVC,0.00,VWS V12.08,2013-02-01 00:58:00,
2013-01-31 19:03:00,52.3,31.6,30.21,NNW,330,2.0,2.0,45,0.00,,OVC,0.00,VWS V12.08,2013-02-01 01:03:00,
2013-01-31 19:08:00,51.8,31.1,30.21,NNW,330,2.0,2.0,45,0.00,,OVC,0.00,VWS V12.08,2013-02-01 01:08:00,
2013-01-31 19:13:00,51.7,31.1,30.21,NNW,330,2.0,2.0,45,0.00,,OVC,0.00,VWS V12.08,2013-02-01 01:13:00,
2013-01-31 19:18:00,51.5,30.9,30.23,NNW,329,2.0,5.0,45,0.00,,OVC,0.00,VWS V12.08,2013-02-01 01:18:00,
2013-01-31 19:23:00,51.5,30.3,30.23,NNW,329,1.0,2.0,44,0.00,,OVC,0.00,VWS V12.08,2013-02-01 01:23:00,
2013-01-31 19:28:00,51.5,30.3,30.23,NNW,329,3.0,3.0,44,0.00,,OVC,0.00,VWS V12.08,2013-02-01 01:28:00,
2013-01-31 19:33:00,51.4,30.8,30.24,NNW,329,5.0,5.0,45,0.00,,OVC,0.00,VWS V12.08,2013-02-01 01:33:00,
2013-01-31 19:38:00,51.2,31.1,30.24,NW,325,2.0,5.0,46,0.00,,OVC,0.00,VWS V12.08,2013-02-01 01:38:00,
2013-01-31 19:43:00,51.1,30.5,30.24,NW,325,2.0,5.0,45,0.00,,OVC,0.00,VWS V12.08,2013-02-01 01:43:00,
2013-01-31 19:48:00,51.1,31.1,30.24,NW,325,2.0,5.0,46,0.00,,OVC,0.00,VWS V12.08,2013-02-01 01:48:00,
2013-01-31 19:53:00,51.1,31.1,30.24,NW,325,2.0,3.0,46,0.00,,OVC,0.00,VWS V12.08,2013-02-01 01:53:00,
2013-01-31 19:58:00,51.1,31.1,30.24,NW,325,1.0,3.0,46,0.00,,OVC,0.00,VWS V12.08,2013-02-01 01:58:00,
2013-01-31 20:03:00,51.3,31.2,30.24,NW,325,3.0,3.0,46,0.00,,OVC,0.00,VWS V12.08,2013-02-01 02:03:00,
2013-01-31 20:08:00,51.2,31.1,30.24,NW,323,3.0,4.0,46,0.00,,OVC,0.00,VWS V12.08,2013-02-01 02:08:00,
2013-01-31 20:13:00,51.2,31.1,30.24,NW,323,2.0,4.0,46,0.00,,OVC,0.00,VWS V12.08,2013-02-01 02:13:00,
2013-01-31 20:18:00,51.3,30.7,30.24,West,281,6.0,6.0,45,0.00,,OVC,0.00,VWS V12.08,2013-02-01 02:18:00,
2013-01-31 20:23:00,51.3,30.7,30.24,West,267,3.0,5.0,45,0.00,,OVC,0.00,VWS V12.08,2013-02-01 02:23:00,
2013-01-31 20:28:00,51.3,30.7,30.24,West,280,2.0,5.0,45,0.00,,OVC,0.00,VWS V12.08,2013-02-01 02:28:00,
2013-01-31 20:33:00,51.8,31.1,30.24,West,274,2.0,3.0,45,0.00,,OVC,0.00,VWS V12.08,2013-02-01 02:33:00,
2013-01-31 20:38:00,51.9,31.2,30.24,West,270,4.0,5.0,45,0.00,,OVC,0.00,VWS V12.08,2013-02-01 02:38:00,
2013-01-31 20:43:00,51.9,31.2,30.24,West,268,4.0,4.0,45,0.00,,OVC,0.00,VWS V12.08,2013-02-01 02:43:00,
2013-01-31 20:48:00,51.9,31.8,30.25,West,268,2.0,5.0,46,0.00,,OVC,0.00,VWS V12.08,2013-02-01 02:48:00,
2013-01-31 20:53:00,51.9,31.8,30.25,West,268,2.0,2.0,46,0.00,,OVC,0.00,VWS V12.08,2013-02-01 02:53:00,
2013-01-31 20:58:00,51.8,31.7,30.25,West,268,1.0,3.0,46,0.00,,OVC,0.00,VWS V12.08,2013-02-01 02:58:00,
2013-01-31 21:03:00,51.6,31.5,30.24,West,270,1.0,3.0,46,0.00,,OVC,0.00,VWS V12.08,2013-02-01 03:03:00,
2013-01-31 21:08:00,51.7,31.6,30.24,West,268,1.0,3.0,46,0.00,,OVC,0.00,VWS V12.08,2013-02-01 03:08:00,
2013-01-31 21:13:00,51.7,31.6,30.24,West,267,0.0,2.0,46,0.00,,OVC,0.00,VWS V12.08,2013-02-01 03:13:00,
2013-01-31 21:18:00,51.8,32.2,30.24,West,267,0.0,2.0,47,0.00,,OVC,0.00,VWS V12.08,2013-02-01 03:18:00,
2013-01-31 21:23:00,51.7,31.6,30.24,West,268,2.0,2.0,46,0.00,,OVC,0.00,VWS V12.08,2013-02-01 03:23:00,
2013-01-31 21:28:00,51.7,31.6,30.24,West,268,0.0,2.0,46,0.00,,OVC,0.00,VWS V12.08,2013-02-01 03:28:00,
2013-01-31 21:33:00,51.7,31.6,30.24,West,268,0.0,2.0,46,0.00,,OVC,0.00,VWS V12.08,2013-02-01 03:33:00,
2013-01-31 21:38:00,51.6,31.5,30.24,West,267,0.0,2.0,46,0.00,,OVC,0.00,VWS V12.08,2013-02-01 03:38:00,
2013-01-31 21:43:00,51.4,31.3,30.24,West,268,0.0,2.0,46,0.00,,OVC,0.00,VWS V12.08,2013-02-01 03:43:00,
2013-01-31 21:48:00,51.2,31.1,30.24,West,268,0.0,2.0,46,0.00,,OVC,0.00,VWS V12.08,2013-02-01 03:48:00,
2013-01-31 21:53:00,51.0,31.0,30.24,West,268,1.0,1.0,46,0.00,,OVC,0.00,VWS V12.08,2013-02-01 03:53:00,
2013-01-31 21:58:00,50.5,32.6,30.24,West,268,0.0,1.0,50,0.00,,OVC,0.00,VWS V12.08,2013-02-01 03:58:00,
2013-01-31 22:03:00,50.2,32.8,30.24,West,267,0.0,0.0,51,0.00,,OVC,0.00,VWS V12.08,2013-02-01 04:03:00,
2013-01-31 22:08:00,49.9,33.0,30.24,West,268,0.0,0.0,52,0.00,,OVC,0.00,VWS V12.08,2013-02-01 04:08:00,
2013-01-31 22:13:00,49.5,32.6,30.24,West,268,0.0,0.0,52,0.00,,OVC,0.00,VWS V12.08,2013-02-01 04:13:00,
2013-01-31 22:18:00,49.2,31.9,30.24,West,267,0.0,0.0,51,0.00,,OVC,0.00,VWS V12.08,2013-02-01 04:18:00,
2013-01-31 22:23:00,49.2,32.3,30.24,West,268,0.0,0.0,52,0.00,,OVC,0.00,VWS V12.08,2013-02-01 04:23:00,
2013-01-31 22:28:00,49.1,32.7,30.24,West,268,0.0,0.0,53,0.00,,OVC,0.00,VWS V12.08,2013-02-01 04:28:00,
2013-01-31 22:33:00,49.2,32.3,30.24,West,268,2.0,2.0,52,0.00,,OVC,0.00,VWS V12.08,2013-02-01 04:33:00,
2013-01-31 22:38:00,49.5,31.1,30.24,West,267,1.0,2.0,49,0.00,,OVC,0.00,VWS V12.08,2013-02-01 04:38:00,
2013-01-31 22:43:00,50.2,32.8,30.24,West,268,1.0,2.0,51,0.00,,OVC,0.00,VWS V12.08,2013-02-01 04:43:00,
2013-01-31 22:48:00,50.1,32.7,30.25,West,267,0.0,2.0,51,0.00,,OVC,0.00,VWS V12.08,2013-02-01 04:48:00,
2013-01-31 22:53:00,50.2,31.8,30.25,West,268,3.0,3.0,49,0.00,,OVC,0.00,VWS V12.08,2013-02-01 04:53:00,
2013-01-31 22:58:00,50.3,31.9,30.25,West,271,4.0,7.0,49,0.00,,OVC,0.00,VWS V12.08,2013-02-01 04:58:00,
2013-01-31 23:00:00,50.5,32.1,30.26,West,264,3.0,7.0,49,0.00,,OVC,0.00,VWS V12.08,2013-02-01 05:00:00,
2013-01-31 23:01:00,50.5,32.6,30.26,West,274,3.0,6.0,50,0.00,,OVC,0.00,VWS V12.08,2013-02-01 05:01:00,
2013-01-31 23:02:00,50.4,33.0,30.26,West,274,5.0,6.0,51,0.00,,OVC,0.00,VWS V12.08,2013-02-01 05:02:00,
2013-01-31 23:03:00,50.6,33.2,30.26,West,264,7.0,7.0,51,0.00,,OVC,0.00,VWS V12.08,2013-02-01 05:03:00,
2013-01-31 23:08:00,50.8,34.8,30.26,WNW,284,5.0,7.0,54,0.00,,OVC,0.00,VWS V12.08,2013-02-01 05:08:00,
2013-01-31 23:13:00,51.0,35.9,30.26,West,274,5.0,7.0,56,0.00,,OVC,0.00,VWS V12.08,2013-02-01 05:13:00,
2013-01-31 23:18:00,51.2,37.4,30.26,NW,319,3.0,7.0,59,0.00,,OVC,0.00,VWS V12.08,2013-02-01 05:18:00,
2013-01-31 23:23:00,51.6,39.8,30.26,NW,319,9.0,10.0,64,0.00,,OVC,0.00,VWS V12.08,2013-02-01 05:23:00,
2013-01-31 23:28:00,51.7,41.1,30.26,West,280,7.0,10.0,67,0.00,,OVC,0.00,VWS V12.08,2013-02-01 05:28:00,
2013-01-31 23:33:00,51.8,41.6,30.27,NW,318,5.0,9.0,68,0.00,,OVC,0.00,VWS V12.08,2013-02-01 05:33:00,
2013-01-31 23:38:00,51.7,41.9,30.27,WNW,282,5.0,10.0,69,0.00,,OVC,0.00,VWS V12.08,2013-02-01 05:38:00,
2013-01-31 23:43:00,51.6,42.2,30.27,WSW,239,5.0,8.0,70,0.00,,OVC,0.00,VWS V12.08,2013-02-01 05:43:00,
2013-01-31 23:48:00,51.6,42.5,30.27,WNW,282,8.0,11.0,71,0.00,,OVC,0.00,VWS V12.08,2013-02-01 05:48:00,
2013-01-31 23:53:00,51.7,42.6,30.27,West,261,7.0,7.0,71,0.00,,OVC,0.00,VWS V12.08,2013-02-01 05:53:00,
2013-01-31 23:58:00,51.6,42.9,30.27,WNW,299,2.0,7.0,72,0.00,,OVC,0.00,VWS V12.08,2013-02-01 05:58:00,